Time;durP1;ratioP1;P1;durP2;ratioP2;P2;SDS_P1;SDS_P2;PMS_P1;PMS_P2;Temp;Humidity;BMP_temperature;BMP_pressure;BME280_temperature;BME280_humidity;BME280_pressure;Samples;Min_cycle;Max_cycle;Signal;HPM_P1;HPM_P2
2022/06/18 00:06:54;;;;;;;11.73;6.13;;;;;;;24.30;76.50;100922.59;6095003;23;20042;-85
2022/06/18 00:19:46;;;;;;;15.30;7.38;;;;;;;24.29;76.41;100923.69;6094801;23;20026;-90
2022/06/18 00:23:00;;;;;;;18.42;6.28;;;;;;;24.26;76.78;100921.47;6079426;23;20035;-86
2022/06/18 00:35:32;;;;;;;14.63;6.75;;;;;;;24.34;76.78;100926.47;6008455;23;20019;-87
2022/06/18 00:39:01;;;;;;;24.23;7.53;;;;;;;24.35;77.57;100928.97;6007565;23;20008;-88
2022/06/18 00:42:54;;;;;;;15.02;6.50;;;;;;;24.35;77.81;100922.72;5952915;24;20062;-91
2022/06/18 00:53:04;;;;;;;12.32;6.82;;;;;;;24.38;77.31;100933.06;6080666;23;20007;-85
2022/06/18 00:57:20;;;;;;;16.65;7.28;;;;;;;24.30;77.75;100928.03;6008993;23;20035;-87
2022/06/18 01:30:13;;;;;;;17.58;7.80;;;;;;;23.41;81.13;100959.16;6076500;23;20018;-90
2022/06/18 04:14:35;;;;;;;25.08;14.02;;;;;;;21.89;100.00;100968.63;6071574;23;20032;-90
2022/06/18 04:28:21;;;;;;;22.35;14.18;;;;;;;22.14;100.00;100972.03;6085717;23;20026;-93
2022/06/18 04:49:36;;;;;;;17.77;12.75;;;;;;;22.45;97.84;100989.09;6122605;23;20058;-91
2022/06/18 04:55:17;;;;;;;26.50;13.52;;;;;;;22.50;96.44;100984.69;6119053;23;20022;-84
2022/06/18 04:57:42;;;;;;;18.25;14.00;;;;;;;22.63;95.83;100989.06;6075687;23;20021;-91
2022/06/18 05:00:19;;;;;;;26.88;14.85;;;;;;;22.58;95.93;100997.00;6083757;23;20335;-89
2022/06/18 05:03:05;;;;;;;26.52;14.15;;;;;;;22.54;96.51;101001.22;6086161;23;20014;-87
2022/06/18 05:05:46;;;;;;;24.20;14.38;;;;;;;22.46;98.40;100999.69;6107136;23;20026;-89
2022/06/18 05:08:31;;;;;;;23.17;14.45;;;;;;;22.37;100.00;101000.22;6067393;23;20153;-86
2022/06/18 05:11:20;;;;;;;28.73;15.20;;;;;;;22.47;98.73;101004.00;6114582;23;20046;-85
2022/06/18 05:14:15;;;;;;;23.15;14.38;;;;;;;22.46;99.69;100999.69;6085390;23;20069;-87
2022/06/18 05:16:51;;;;;;;19.55;14.18;;;;;;;22.46;100.00;101005.09;6087846;23;20015;-86
2022/06/18 05:19:27;;;;;;;23.77;14.43;;;;;;;22.70;99.70;101014.16;6064216;23;20026;-87
2022/06/18 05:21:55;;;;;;;26.52;14.25;;;;;;;22.61;99.50;101007.34;6090810;23;20017;-84
2022/06/18 05:24:22;;;;;;;22.30;13.80;;;;;;;22.74;98.21;101001.81;6106192;23;20019;-85
2022/06/18 05:27:06;;;;;;;20.20;14.40;;;;;;;22.90;96.65;101014.66;6089637;23;20048;-89
2022/06/18 05:29:32;;;;;;;21.73;12.95;;;;;;;22.71;99.46;101015.78;6085114;23;20067;-88
2022/06/18 05:32:52;;;;;;;23.70;13.93;;;;;;;22.78;97.91;101024.63;6116936;23;20054;-86
2022/06/18 05:35:53;;;;;;;22.13;14.10;;;;;;;23.04;97.66;101026.94;6117360;23;20025;-90
2022/06/18 05:38:30;;;;;;;17.60;13.25;;;;;;;23.12;96.93;101029.31;6064091;23;20101;-86
2022/06/18 05:40:57;;;;;;;20.52;13.52;;;;;;;23.28;94.70;101040.50;6076746;23;20328;-91
2022/06/18 05:43:32;;;;;;;20.83;12.93;;;;;;;23.18;91.91;101041.06;6086623;23;20011;-92
2022/06/18 05:46:14;;;;;;;24.48;13.13;;;;;;;23.11;92.98;101040.34;6019635;23;20023;-87
2022/06/18 05:49:12;;;;;;;20.98;12.40;;;;;;;23.18;93.92;101044.59;6087750;23;20027;-88
2022/06/18 05:51:57;;;;;;;22.00;12.00;;;;;;;23.47;91.95;101044.78;6066288;23;20029;-88
2022/06/18 05:54:24;;;;;;;20.48;12.70;;;;;;;23.61;91.66;101043.50;6067917;23;20006;-88
2022/06/18 05:57:15;;;;;;;22.02;11.73;;;;;;;23.90;89.76;101052.56;6091140;23;20043;-86
2022/06/18 06:00:58;;;;;;;19.65;12.02;;;;;;;24.01;87.89;101041.72;6087156;23;20023;-89
2022/06/18 06:03:29;;;;;;;16.63;11.95;;;;;;;24.14;87.02;101049.63;6090853;23;19999;-87
2022/06/18 06:06:00;;;;;;;19.38;10.95;;;;;;;24.13;86.94;101044.44;6087273;23;20011;-89
2022/06/18 06:08:26;;;;;;;18.23;10.68;;;;;;;24.18;85.05;101052.69;6085325;23;20078;-87
2022/06/18 06:14:30;;;;;;;15.93;9.75;;;;;;;24.77;80.25;101073.13;6087623;23;20019;-88
2022/06/18 06:20:40;;;;;;;11.70;8.38;;;;;;;24.99;78.48;101063.25;6095837;23;20042;-89
2022/06/18 06:23:57;;;;;;;13.77;7.90;;;;;;;25.40;75.97;101072.94;6147798;23;20034;-90
2022/06/18 06:26:37;;;;;;;10.82;7.47;;;;;;;25.19;77.12;101079.91;6110790;23;20014;-90
2022/06/18 06:29:47;;;;;;;17.15;7.63;;;;;;;25.28;77.05;101076.78;6067885;23;20046;-89
2022/06/18 06:32:25;;;;;;;12.20;6.85;;;;;;;26.14;71.46;101068.94;6063639;23;20055;-89
2022/06/18 06:35:00;;;;;;;12.55;6.57;;;;;;;26.33;70.87;101063.22;6087149;23;20023;-90
2022/06/18 06:38:11;;;;;;;14.52;6.22;;;;;;;26.26;70.90;101068.84;6090069;23;20030;-87
2022/06/18 06:49:45;;;;;;;11.20;6.68;;;;;;;26.51;70.56;101074.59;6005279;23;20012;-90
2022/06/18 07:09:10;;;;;;;11.57;6.57;;;;;;;27.02;68.57;101061.56;6090540;23;20019;-88
2022/06/18 07:12:15;;;;;;;10.25;6.18;;;;;;;26.97;69.19;101054.19;6089217;23;20027;-88
2022/06/18 07:17:26;;;;;;;9.82;6.22;;;;;;;27.04;70.47;101051.25;6087244;23;20022;-88
2022/06/18 07:20:42;;;;;;;15.95;6.47;;;;;;;27.38;67.48;101052.63;6091224;23;20022;-91
2022/06/18 07:23:35;;;;;;;8.70;5.93;;;;;;;27.81;66.02;101054.34;6001024;23;21064;-89
2022/06/18 07:26:02;;;;;;;12.57;6.18;;;;;;;27.46;67.08;101045.94;6082654;23;20015;-90
2022/06/18 07:28:30;;;;;;;9.20;5.82;;;;;;;27.32;66.79;101041.97;6074274;23;20025;-89
2022/06/18 07:36:23;;;;;;;14.15;6.50;;;;;;;27.94;64.25;101045.69;6102629;23;20023;-90
2022/06/18 07:41:53;;;;;;;10.90;6.90;;;;;;;27.61;65.37;101051.47;6115662;23;20005;-85
2022/06/18 07:44:22;;;;;;;14.70;6.15;;;;;;;27.66;64.88;101040.63;6116164;23;20014;-87
2022/06/18 07:46:48;;;;;;;17.05;7.18;;;;;;;27.77;65.18;101034.19;6110565;23;20073;-87
2022/06/18 07:49:17;;;;;;;10.55;5.93;;;;;;;28.11;64.74;101040.91;6093587;23;20023;-87
2022/06/18 07:51:43;;;;;;;21.85;6.82;;;;;;;28.76;59.74;101046.91;6058331;23;20011;-88
2022/06/18 07:54:16;;;;;;;17.15;5.60;;;;;;;28.79;59.34;101039.00;6053500;23;20019;-90
2022/06/18 07:57:00;;;;;;;9.60;5.68;;;;;;;28.97;57.64;101037.69;6080010;23;20018;-86
2022/06/18 07:59:28;;;;;;;8.20;5.47;;;;;;;29.42;56.98;101045.09;6070085;23;20029;-88
2022/06/18 08:07:14;;;;;;;10.18;5.28;;;;;;;29.37;56.12;101036.88;6082047;23;20101;-90
2022/06/18 08:09:43;;;;;;;15.80;5.78;;;;;;;28.54;58.46;101047.91;6051725;23;20400;-87
2022/06/18 08:12:37;;;;;;;11.27;6.00;;;;;;;28.72;59.42;101046.63;6084846;23;20015;-86
2022/06/18 08:15:13;;;;;;;13.35;6.10;;;;;;;28.35;60.58;101043.19;6081184;23;20022;-93
2022/06/18 08:17:40;;;;;;;11.02;6.80;;;;;;;28.16;61.00;101040.97;6088960;23;20023;-87
2022/06/18 08:20:08;;;;;;;12.27;5.63;;;;;;;28.74;59.45;101037.06;6030120;23;20407;-91
2022/06/18 08:22:36;;;;;;;10.02;5.75;;;;;;;29.37;56.91;101045.06;6073692;23;20078;-90
2022/06/18 08:25:18;;;;;;;10.00;6.00;;;;;;;28.70;58.34;101048.81;6076617;23;20109;-88
2022/06/18 08:27:46;;;;;;;9.45;5.45;;;;;;;28.73;58.73;101042.81;6051367;23;20015;-88
2022/06/18 08:30:17;;;;;;;8.50;4.82;;;;;;;29.22;57.56;101041.25;6076595;23;20529;-90
2022/06/18 08:33:02;;;;;;;9.80;4.68;;;;;;;29.76;55.52;101059.81;6076722;23;20030;-88
2022/06/18 08:35:28;;;;;;;11.10;5.50;;;;;;;30.11;53.83;101048.81;6088171;23;20025;-85
2022/06/18 08:37:54;;;;;;;19.90;6.30;;;;;;;30.11;53.81;101047.97;6059790;23;20044;-85
2022/06/18 08:40:45;;;;;;;13.15;5.28;;;;;;;30.96;51.20;101048.69;6060633;23;20398;-90
2022/06/18 08:43:24;;;;;;;14.60;5.65;;;;;;;30.49;52.46;101054.72;6052103;23;20499;-90
2022/06/18 08:46:29;;;;;;;12.75;6.00;;;;;;;30.81;51.67;101052.31;6072906;23;20022;-91
2022/06/18 08:49:06;;;;;;;10.77;5.40;;;;;;;30.57;51.61;101056.84;6051926;23;20021;-91
2022/06/18 08:51:45;;;;;;;11.68;5.70;;;;;;;30.79;51.43;101054.53;6047814;23;20019;-89
2022/06/18 08:54:39;;;;;;;15.27;5.78;;;;;;;30.94;50.03;101050.88;6048714;23;20021;-87
2022/06/18 08:57:23;;;;;;;15.57;5.15;;;;;;;31.10;50.10;101045.03;6073479;23;20066;-87
2022/06/18 09:00:09;;;;;;;13.57;5.07;;;;;;;31.39;48.99;101049.75;6076531;23;20042;-88
2022/06/18 09:02:56;;;;;;;19.88;4.55;;;;;;;31.21;49.82;101054.81;6025578;23;20538;-90
2022/06/18 09:05:51;;;;;;;8.85;4.30;;;;;;;31.15;49.03;101055.97;6083420;23;20238;-91
2022/06/18 09:08:41;;;;;;;13.38;3.83;;;;;;;31.08;50.26;101058.19;6060208;23;20022;-88
2022/06/18 09:11:28;;;;;;;8.82;4.18;;;;;;;31.89;47.67;101060.22;6071855;23;20037;-87
2022/06/18 09:13:58;;;;;;;10.82;5.10;;;;;;;32.33;46.75;101072.91;6083527;23;20021;-87
2022/06/18 09:16:32;;;;;;;14.45;4.63;;;;;;;31.32;49.42;101063.78;6082385;23;20027;-91
2022/06/18 09:19:03;;;;;;;8.38;4.32;;;;;;;31.81;47.33;101055.38;6082248;23;20011;-88
2022/06/18 09:22:00;;;;;;;10.48;4.20;;;;;;;31.40;47.28;101059.56;6055411;23;20015;-86
2022/06/18 09:24:42;;;;;;;11.30;4.80;;;;;;;31.41;46.58;101055.75;5942496;24;20046;-89
2022/06/18 09:27:45;;;;;;;9.32;3.75;;;;;;;31.85;45.46;101061.94;5945466;24;20016;-86
2022/06/18 09:30:19;;;;;;;7.60;3.25;;;;;;;31.72;44.67;101054.34;5969257;24;20098;-91
2022/06/18 09:32:51;;;;;;;6.53;3.35;;;;;;;31.45;42.48;101048.59;5957373;24;20017;-89
2022/06/18 09:35:39;;;;;;;7.97;2.67;;;;;;;31.45;40.67;101052.16;6030483;23;20184;-87
2022/06/18 09:38:09;;;;;;;7.55;2.88;;;;;;;31.91;40.57;101049.78;6072976;23;20038;-90
2022/06/18 09:40:39;;;;;;;10.93;3.28;;;;;;;32.08;40.35;101038.41;6048149;23;20017;-89
2022/06/18 09:43:22;;;;;;;5.47;2.60;;;;;;;31.37;38.02;101040.97;6046593;23;20067;-93
2022/06/18 09:46:02;;;;;;;5.88;2.70;;;;;;;31.29;38.08;101044.34;6078487;23;20015;-87
2022/06/18 09:48:29;;;;;;;7.13;2.67;;;;;;;31.66;38.51;101042.63;6054299;23;20023;-87
2022/06/18 09:50:58;;;;;;;4.88;2.72;;;;;;;31.55;37.71;101021.13;6049923;23;20106;-88
2022/06/18 09:53:36;;;;;;;8.73;2.78;;;;;;;31.10;38.71;101028.59;6023069;23;20098;-89
2022/06/18 09:56:04;;;;;;;5.20;2.38;;;;;;;31.03;38.88;101044.53;6076548;23;20011;-86
2022/06/18 09:58:58;;;;;;;10.88;2.30;;;;;;;31.12;39.85;101040.06;6074624;23;20030;-86
2022/06/18 10:01:44;;;;;;;8.88;2.65;;;;;;;31.55;38.93;101029.34;6055558;23;20022;-87
2022/06/18 10:07:06;;;;;;;8.45;2.35;;;;;;;31.27;38.99;101031.75;6103736;23;20011;-85
2022/06/18 10:09:43;;;;;;;7.10;2.33;;;;;;;31.23;36.97;101027.94;6054242;23;20041;-91
2022/06/18 10:12:36;;;;;;;5.68;2.05;;;;;;;31.55;36.96;101041.13;6107148;23;20066;-91
2022/06/18 10:15:25;;;;;;;5.40;2.40;;;;;;;31.23;37.54;101038.91;6078336;23;20023;-89
2022/06/18 10:18:09;;;;;;;5.68;2.47;;;;;;;31.09;38.02;101032.44;6079607;23;20576;-91
2022/06/18 10:20:44;;;;;;;5.80;2.58;;;;;;;31.08;38.91;101025.34;6061435;23;20014;-87
2022/06/18 10:23:36;;;;;;;12.02;2.70;;;;;;;30.96;39.56;101022.13;6103670;23;20038;-88
2022/06/18 10:26:34;;;;;;;2.92;2.53;;;;;;;31.07;39.36;101020.97;6075889;23;20077;-87
2022/06/18 10:29:25;;;;;;;5.53;2.38;;;;;;;30.92;39.09;101021.06;6100977;23;20077;-88
2022/06/18 10:32:17;;;;;;;7.20;2.50;;;;;;;31.26;38.76;101016.41;6101175;23;20045;-88
2022/06/18 10:34:49;;;;;;;6.85;2.38;;;;;;;31.54;38.40;101008.50;6049888;23;20046;-86
2022/06/18 10:37:30;;;;;;;4.50;2.10;;;;;;;31.74;37.58;101000.09;6100452;23;20034;-88
2022/06/18 10:40:30;;;;;;;6.82;2.50;;;;;;;32.17;35.43;100998.22;6074037;23;20015;-85
2022/06/18 10:43:31;;;;;;;6.95;2.05;;;;;;;31.86;35.62;100997.75;6079463;23;20014;-91
2022/06/18 10:46:18;;;;;;;7.63;2.58;;;;;;;32.07;36.12;101001.09;6107337;23;20010;-90
2022/06/18 10:48:47;;;;;;;4.15;2.47;;;;;;;32.19;36.08;100985.84;6072888;23;20022;-91
2022/06/18 10:51:22;;;;;;;6.85;2.55;;;;;;;31.90;37.19;101003.47;6099869;23;20301;-84
2022/06/18 10:53:55;;;;;;;4.53;2.25;;;;;;;32.22;36.08;100992.66;6103633;23;20011;-87
2022/06/18 10:56:24;;;;;;;8.20;2.05;;;;;;;32.19;35.73;100985.84;6100969;23;20007;-87
2022/06/18 10:58:55;;;;;;;5.97;2.10;;;;;;;32.44;35.09;100992.09;6099215;23;20014;-87
2022/06/18 11:01:46;;;;;;;9.43;3.10;;;;;;;32.50;34.14;101002.72;6118347;23;20081;-87
2022/06/18 11:04:20;;;;;;;4.85;1.90;;;;;;;32.18;33.46;100999.88;6116864;23;20014;-88
2022/06/18 11:06:52;;;;;;;5.07;2.35;;;;;;;32.25;33.89;100990.16;6098634;23;20021;-87
2022/06/18 11:09:28;;;;;;;;;;;;;;;31.74;34.35;100991.84;6098852;23;20460;-86
2022/06/18 11:12:18;;;;;;;3.78;1.90;;;;;;;32.13;33.21;100984.28;6104114;23;19935;-90
2022/06/18 11:14:44;;;;;;;5.82;1.83;;;;;;;32.36;35.07;100973.53;6072123;23;20315;-87
2022/06/18 11:17:20;;;;;;;4.35;2.10;;;;;;;32.54;33.46;100972.75;6100289;23;20098;-86
2022/06/18 11:19:51;;;;;;;7.88;2.35;;;;;;;32.38;34.16;100977.66;6099594;23;20045;-85
2022/06/18 11:22:22;;;;;;;4.18;2.35;;;;;;;32.32;34.18;100964.31;6099753;23;20025;-86
2022/06/18 11:24:59;;;;;;;9.63;2.20;;;;;;;31.78;34.22;100962.75;6074326;23;20438;-87
2022/06/18 11:27:37;;;;;;;6.60;2.17;;;;;;;31.65;34.84;100975.22;6100302;23;20110;-85
2022/06/18 11:30:21;;;;;;;6.05;2.22;;;;;;;31.37;35.08;100964.25;6098895;23;20015;-89
2022/06/18 11:32:48;;;;;;;8.30;2.40;;;;;;;31.39;35.75;100951.13;6099867;23;20312;-88
2022/06/18 11:35:41;;;;;;;3.25;2.08;;;;;;;31.25;35.35;100957.25;6100599;23;20065;-84
2022/06/18 11:38:34;;;;;;;8.60;2.13;;;;;;;31.15;35.00;100954.63;6094239;23;20022;-87
2022/06/18 11:41:10;;;;;;;5.13;1.65;;;;;;;31.46;35.08;100959.78;6096357;23;20102;-85
2022/06/18 11:43:48;;;;;;;7.30;2.03;;;;;;;31.44;35.59;100956.53;6102751;23;20045;-83
2022/06/18 11:46:41;;;;;;;5.35;1.70;;;;;;;31.48;35.45;100944.72;6082055;23;20018;-85
2022/06/18 11:49:23;;;;;;;6.90;1.88;;;;;;;31.55;35.40;100949.88;6111659;23;20042;-86
2022/06/18 11:51:59;;;;;;;5.33;2.10;;;;;;;31.25;35.47;100942.75;6111612;23;20033;-87
2022/06/18 11:54:36;;;;;;;4.00;1.73;;;;;;;31.32;33.66;100936.94;6113073;23;20011;-88
2022/06/18 11:57:27;;;;;;;4.43;2.00;;;;;;;31.47;34.06;100925.81;6114437;23;20014;-85
2022/06/18 12:00:27;;;;;;;7.70;2.10;;;;;;;31.64;32.62;100931.69;6119999;23;20014;-84
2022/06/18 12:03:12;;;;;;;14.48;1.95;;;;;;;31.41;33.32;100919.56;6117484;23;20046;-87
2022/06/18 12:06:15;;;;;;;9.60;1.90;;;;;;;31.44;33.43;100912.69;6108977;23;20061;-86
2022/06/18 12:08:41;;;;;;;4.80;2.60;;;;;;;31.48;34.00;100935.66;6105942;23;20471;-89
2022/06/18 12:11:52;;;;;;;5.35;2.10;;;;;;;31.24;34.56;100920.03;6055563;23;20046;-88
2022/06/18 12:14:35;;;;;;;3.22;1.63;;;;;;;31.27;33.98;100913.97;6080696;23;20338;-90
2022/06/18 12:17:36;;;;;;;4.65;2.08;;;;;;;31.30;34.75;100911.75;6032586;23;20473;-89
2022/06/18 12:20:22;;;;;;;4.60;1.98;;;;;;;31.45;34.37;100903.38;6106978;23;20018;-90
2022/06/18 12:22:54;;;;;;;5.05;1.90;;;;;;;31.28;34.62;100914.78;6109235;23;20015;-92
2022/06/18 12:25:22;;;;;;;9.60;2.10;;;;;;;30.99;35.65;100898.34;6109769;23;20020;-89
2022/06/18 12:28:24;;;;;;;13.75;2.65;;;;;;;31.15;35.48;100908.06;6084619;23;19991;-88
2022/06/18 12:31:00;;;;;;;4.55;2.25;;;;;;;31.23;34.80;100899.22;6050348;23;20018;-89
2022/06/18 12:33:39;;;;;;;6.88;2.22;;;;;;;31.28;34.67;100881.91;6072952;23;20438;-89
2022/06/18 12:36:20;;;;;;;8.85;2.00;;;;;;;31.49;34.42;100890.69;6049358;23;20010;-88
2022/06/18 12:39:06;;;;;;;5.43;2.10;;;;;;;31.41;34.80;100902.31;6103173;23;20006;-86
2022/06/18 12:41:42;;;;;;;9.15;2.75;;;;;;;31.21;34.50;100908.81;6108830;23;20015;-86
2022/06/18 12:44:14;;;;;;;3.92;2.03;;;;;;;31.23;33.98;100893.72;6078678;23;20091;-86
2022/06/18 12:46:48;;;;;;;3.83;1.95;;;;;;;31.22;33.58;100883.88;6097017;23;20094;-88
2022/06/18 12:49:37;;;;;;;7.07;2.50;;;;;;;31.30;34.47;100881.59;6078290;23;20019;-82
2022/06/18 12:52:04;;;;;;;6.93;2.22;;;;;;;31.31;33.92;100891.47;6104085;23;20011;-82
2022/06/18 12:54:52;;;;;;;4.88;2.38;;;;;;;31.26;33.69;100867.69;6106744;23;20061;-83
2022/06/18 12:57:27;;;;;;;6.57;2.30;;;;;;;31.38;34.11;100867.28;6102223;23;20508;-83
2022/06/18 13:00:19;;;;;;;6.72;2.00;;;;;;;31.62;34.24;100865.38;6108680;23;20025;-84
2022/06/18 13:03:25;;;;;;;5.28;2.30;;;;;;;31.52;34.52;100857.28;6109224;23;20038;-87
2022/06/18 13:06:06;;;;;;;4.13;2.35;;;;;;;31.46;35.23;100852.94;6109500;23;20038;-86
2022/06/18 13:09:01;;;;;;;8.52;2.55;;;;;;;31.71;34.83;100858.97;6084176;23;20014;-83
2022/06/18 13:12:05;;;;;;;6.85;2.30;;;;;;;31.76;34.00;100847.91;6103114;23;20022;-87
2022/06/18 13:15:02;;;;;;;5.32;2.40;;;;;;;31.61;34.95;100847.31;6077997;23;20018;-86
2022/06/18 13:17:53;;;;;;;7.63;2.45;;;;;;;31.65;34.35;100845.63;6105862;23;20014;-83
2022/06/18 13:20:29;;;;;;;3.65;2.40;;;;;;;31.59;34.30;100849.50;6071804;23;20061;-88
2022/06/18 13:22:55;;;;;;;5.00;2.25;;;;;;;31.55;34.69;100840.25;6098501;23;20090;-90
2022/06/18 13:28:16;;;;;;;5.10;2.47;;;;;;;31.71;35.33;100837.03;6097955;23;20454;-89
2022/06/18 13:30:53;;;;;;;4.32;2.45;;;;;;;31.74;34.48;100832.88;6099489;23;20086;-90
2022/06/18 13:33:40;;;;;;;3.50;2.20;;;;;;;31.38;34.65;100826.19;6098644;23;20034;-93
2022/06/18 13:36:37;;;;;;;8.88;2.38;;;;;;;31.39;35.66;100822.34;6098013;23;20046;-85
2022/06/18 13:39:12;;;;;;;7.75;2.20;;;;;;;31.66;34.82;100819.81;6104330;23;20058;-88
2022/06/18 13:41:53;;;;;;;7.50;2.28;;;;;;;31.53;35.16;100817.81;6102859;23;20454;-90
2022/06/18 13:44:32;;;;;;;8.48;2.28;;;;;;;31.21;35.21;100811.06;6106737;23;20010;-88
2022/06/18 13:47:27;;;;;;;5.22;2.40;;;;;;;31.19;35.60;100815.16;6107176;23;20037;-90
2022/06/18 13:50:10;;;;;;;6.95;1.98;;;;;;;31.30;35.28;100802.19;6105661;23;20010;-88
2022/06/18 13:52:45;;;;;;;11.32;2.63;;;;;;;31.43;35.81;100810.50;6103714;23;20017;-87
2022/06/18 13:55:15;;;;;;;6.55;2.75;;;;;;;31.42;35.20;100805.34;6101296;23;20025;-88
2022/06/18 13:57:47;;;;;;;6.18;2.47;;;;;;;31.26;35.57;100797.28;6076942;23;20045;-86
2022/06/18 14:00:26;;;;;;;6.22;2.35;;;;;;;31.37;34.81;100791.69;6074418;23;20015;-86
2022/06/18 14:03:09;;;;;;;6.30;2.63;;;;;;;31.35;34.57;100785.69;6103320;23;20038;-83
2022/06/18 14:05:49;;;;;;;12.73;2.78;;;;;;;31.33;35.13;100785.16;6099517;23;20018;-89
2022/06/18 14:08:20;;;;;;;;;;;;;;;31.36;35.50;100779.09;6099962;23;20014;-86
2022/06/18 14:10:46;;;;;;;8.43;2.65;;;;;;;31.43;34.94;100774.88;6099675;23;20360;-87
2022/06/18 14:13:14;;;;;;;7.80;2.30;;;;;;;31.39;35.35;100775.78;6099114;23;20151;-88
2022/06/18 14:15:58;;;;;;;5.63;2.55;;;;;;;31.33;35.42;100768.72;6098618;23;20010;-88
2022/06/18 14:18:25;;;;;;;6.63;2.40;;;;;;;31.40;35.55;100766.44;6098653;23;20123;-87
2022/06/18 14:21:00;;;;;;;7.85;2.80;;;;;;;31.41;35.30;100768.06;6072219;23;20589;-86
2022/06/18 14:23:28;;;;;;;6.25;2.40;;;;;;;31.47;35.66;100764.16;6098797;23;20007;-89
2022/06/18 14:26:02;;;;;;;6.07;2.50;;;;;;;31.53;35.59;100769.28;6098499;23;20013;-84
2022/06/18 14:28:39;;;;;;;6.57;2.45;;;;;;;31.38;35.11;100760.44;6099013;23;20037;-90
2022/06/18 14:31:32;;;;;;;5.65;2.42;;;;;;;31.36;35.24;100749.78;6099369;23;20469;-90
2022/06/18 14:34:03;;;;;;;7.97;2.67;;;;;;;31.35;35.45;100750.91;6097678;23;20102;-86
2022/06/18 14:36:36;;;;;;;4.40;2.63;;;;;;;31.43;36.05;100752.97;6098974;23;20011;-89
2022/06/18 14:39:14;;;;;;;10.27;2.67;;;;;;;31.40;35.73;100747.25;6073134;23;20053;-87
2022/06/18 14:41:41;;;;;;;4.60;2.50;;;;;;;31.40;35.77;100752.75;6100053;23;20069;-88
2022/06/18 14:44:34;;;;;;;5.55;2.70;;;;;;;31.62;35.22;100750.28;6106921;23;20081;-94
2022/06/18 14:47:08;;;;;;;7.45;2.90;;;;;;;31.68;35.86;100743.63;6051631;23;20025;-90
2022/06/18 14:50:12;;;;;;;6.75;2.88;;;;;;;31.67;35.43;100741.97;6100142;23;20036;-92
2022/06/18 14:53:11;;;;;;;4.20;2.70;;;;;;;31.80;34.98;100730.25;6106664;23;20070;-94
2022/06/18 14:56:12;;;;;;;5.47;2.70;;;;;;;31.77;34.91;100728.13;6057861;23;20461;-91
2022/06/18 14:59:02;;;;;;;6.65;2.88;;;;;;;31.75;35.66;100725.66;6106370;23;20010;-92
2022/06/18 15:01:57;;;;;;;5.32;2.60;;;;;;;31.92;34.62;100730.59;6077368;23;20038;-88
2022/06/18 15:04:47;;;;;;;4.35;2.50;;;;;;;31.77;35.04;100730.88;6100674;23;20454;-90
2022/06/18 15:07:13;;;;;;;4.53;2.50;;;;;;;31.73;34.83;100724.34;6079662;23;20391;-90
2022/06/18 15:09:52;;;;;;;12.77;2.80;;;;;;;31.57;35.45;100712.81;6083469;23;20017;-92
2022/06/18 15:12:22;;;;;;;9.48;2.67;;;;;;;31.56;35.36;100705.69;6105926;23;20037;-87
2022/06/18 15:14:52;;;;;;;5.28;2.25;;;;;;;31.69;35.97;100702.19;6102427;23;20525;-94
2022/06/18 15:20:07;;;;;;;;;;;;;;;31.75;35.39;100700.22;6109672;23;20014;-90
2022/06/18 15:23:21;;;;;;;7.50;2.88;;;;;;;31.71;35.35;100688.19;6108702;23;19916;-89
2022/06/18 15:25:32;;;;;;;5.78;2.80;;;;;;;31.72;35.08;100685.16;6096303;23;20019;-90
2022/06/18 15:28:10;;;;;;;6.25;2.67;;;;;;;31.64;35.40;100694.06;6110291;23;20018;-88
2022/06/18 15:30:43;;;;;;;8.25;2.83;;;;;;;31.57;35.02;100676.34;6107407;23;20451;-91
2022/06/18 15:33:12;;;;;;;7.28;2.50;;;;;;;31.68;34.32;100672.34;6102790;23;20030;-92
2022/06/18 15:35:42;;;;;;;8.13;2.88;;;;;;;31.87;34.99;100670.38;6103101;23;20010;-90
2022/06/18 15:38:32;;;;;;;6.43;2.78;;;;;;;31.78;34.90;100672.19;6089470;23;20026;-90
2022/06/18 15:41:16;;;;;;;16.23;9.25;;;;;;;31.75;34.61;100678.28;6067010;23;20014;-91
2022/06/18 15:44:06;;;;;;;12.35;8.57;;;;;;;31.70;34.62;100667.38;6084957;23;20018;-89
2022/06/18 15:46:32;;;;;;;6.18;2.78;;;;;;;31.57;35.02;100670.88;6112235;23;20038;-90
2022/06/18 15:49:04;;;;;;;6.80;2.85;;;;;;;31.63;35.35;100664.19;6118418;23;20009;-89
2022/06/18 15:51:37;;;;;;;7.38;2.80;;;;;;;31.75;34.87;100664.56;6091460;23;20095;-90
2022/06/18 15:54:29;;;;;;;8.65;2.80;;;;;;;31.72;35.20;100660.47;6058811;23;20355;-90
2022/06/18 15:57:23;;;;;;;5.70;2.38;;;;;;;31.62;34.99;100657.13;6060389;23;20015;-89
2022/06/18 15:59:55;;;;;;;5.15;2.67;;;;;;;31.69;34.84;100657.53;6058766;23;20014;-87
2022/06/18 16:02:27;;;;;;;5.55;2.78;;;;;;;31.55;35.21;100659.41;6061784;23;20015;-91
2022/06/18 16:05:00;;;;;;;6.97;2.70;;;;;;;31.64;34.93;100657.63;6060789;23;20066;-93
2022/06/18 16:10:58;;;;;;;8.07;2.95;;;;;;;31.54;35.54;100644.91;6088201;23;20046;-90
2022/06/18 16:13:37;;;;;;;6.63;2.75;;;;;;;31.52;34.86;100641.63;6080413;23;20186;-92
2022/06/18 16:16:23;;;;;;;6.93;2.53;;;;;;;31.64;35.52;100633.78;6009806;23;20015;-92
2022/06/18 16:18:59;;;;;;;5.72;2.65;;;;;;;31.56;35.24;100637.19;6060892;23;20007;-91
2022/06/18 16:21:28;;;;;;;5.55;2.80;;;;;;;31.41;35.59;100636.56;6087828;23;20030;-93
2022/06/18 16:23:58;;;;;;;10.52;2.70;;;;;;;31.45;36.06;100634.88;6054906;23;20022;-91
2022/06/18 16:26:36;;;;;;;8.18;3.10;;;;;;;31.52;35.84;100638.09;6084460;23;20039;-94
2022/06/18 16:29:08;;;;;;;5.63;2.90;;;;;;;31.56;35.06;100637.19;6076359;23;20022;-92
2022/06/18 16:31:39;;;;;;;8.63;2.65;;;;;;;31.43;35.23;100631.59;6122401;23;20019;-91
2022/06/18 16:34:43;;;;;;;6.43;2.65;;;;;;;31.35;35.72;100635.03;6073564;23;20050;-90
2022/06/18 16:37:16;;;;;;;8.07;2.78;;;;;;;31.51;35.18;100636.47;6124050;23;19998;-92
2022/06/18 16:39:57;;;;;;;9.07;2.70;;;;;;;31.33;35.86;100626.28;6120036;23;20047;-87
2022/06/18 16:42:30;;;;;;;8.85;2.83;;;;;;;31.27;35.57;100633.78;6123224;23;19998;-88
2022/06/18 16:45:18;;;;;;;7.88;2.75;;;;;;;31.21;36.03;100635.78;6096082;23;20018;-92
2022/06/18 16:48:20;;;;;;;9.70;2.53;;;;;;;31.32;36.17;100635.63;6121829;23;19995;-88
2022/06/18 16:50:54;;;;;;;5.18;2.90;;;;;;;31.34;36.02;100634.22;6093515;23;20018;-90
2022/06/18 16:53:28;;;;;;;8.10;3.22;;;;;;;31.31;35.87;100634.00;6082967;23;20014;-90
2022/06/18 16:55:59;;;;;;;11.27;2.78;;;;;;;31.16;35.84;100627.63;6068361;23;20049;-88
2022/06/18 16:58:28;;;;;;;9.55;2.92;;;;;;;31.26;36.19;100615.69;6122232;23;20018;-89
2022/06/18 17:00:54;;;;;;;8.20;2.60;;;;;;;31.23;36.27;100622.59;6097677;23;20019;-92
2022/06/18 17:03:24;;;;;;;7.22;2.42;;;;;;;31.29;36.42;100619.78;6113341;23;20035;-90
2022/06/18 17:06:01;;;;;;;9.15;2.88;;;;;;;31.32;35.93;100624.66;6088224;23;20101;-90
2022/06/18 17:08:45;;;;;;;6.22;2.42;;;;;;;31.35;36.50;100613.94;6087273;23;19998;-91
2022/06/18 17:11:16;;;;;;;5.13;2.40;;;;;;;31.31;36.45;100618.38;6059346;23;20015;-90
2022/06/18 17:13:41;;;;;;;7.90;2.50;;;;;;;31.31;36.42;100617.56;6084898;23;20010;-92
2022/06/18 17:16:10;;;;;;;9.35;3.03;;;;;;;31.17;36.02;100612.81;6084131;23;20154;-91
2022/06/18 17:18:37;;;;;;;6.20;2.80;;;;;;;31.09;36.55;100613.47;6083011;23;20018;-92
2022/06/18 17:21:10;;;;;;;3.42;2.42;;;;;;;31.10;36.68;100617.84;6110232;23;20003;-92
2022/06/18 17:31:07;;;;;;;6.57;2.65;;;;;;;31.21;36.80;100622.09;6105793;23;20010;-92
2022/06/18 17:31:59;;;;;;;12.15;3.10;;;;;;;31.11;37.12;100615.94;6100720;23;20066;-90
2022/06/18 17:34:25;;;;;;;7.65;2.60;;;;;;;31.18;37.28;100611.72;6076589;23;20011;-91
2022/06/18 17:36:51;;;;;;;8.60;3.17;;;;;;;31.11;38.03;100624.16;6101111;23;20011;-89
2022/06/18 17:39:17;;;;;;;10.68;3.00;;;;;;;31.17;37.81;100621.03;6050091;23;20017;-92
2022/06/18 17:41:42;;;;;;;7.32;2.67;;;;;;;31.22;37.47;100617.44;6051345;23;20011;-92
2022/06/18 17:44:12;;;;;;;8.95;3.03;;;;;;;31.25;37.99;100614.88;6075760;23;20062;-88
2022/06/18 17:46:37;;;;;;;9.55;3.03;;;;;;;31.08;38.54;100617.34;6028243;23;20101;-92
2022/06/18 17:49:03;;;;;;;10.70;2.92;;;;;;;31.10;38.83;100615.13;6051466;23;20446;-89